Time;durP1;ratioP1;P1;durP2;ratioP2;P2;SDS_P1;SDS_P2;PMS_P1;PMS_P2;Temp;Humidity;BMP_temperature;BMP_pressure;BME280_temperature;BME280_humidity;BME280_pressure;Samples;Min_cycle;Max_cycle;Signal;HPM_P1;HPM_P2
2021/10/13 00:02:14;;;;;;;5.73;2.83;;;;;;;;;;5105768;28;20475;-81
2021/10/13 00:04:42;;;;;;;3.50;2.60;;;;;;;;;;5105874;28;20474;-81
2021/10/13 00:07:09;;;;;;;7.93;4.00;;;;;;;;;;5104679;28;20501;-80
2021/10/13 00:09:36;;;;;;;7.50;3.73;;;;;;;;;;5105183;28;20511;-81
2021/10/13 00:12:03;;;;;;;6.17;3.20;;;;;;;;;;5103706;28;20859;-80
2021/10/13 00:14:30;;;;;;;10.57;3.83;;;;;;;;;;5104729;28;20451;-81
2021/10/13 00:17:03;;;;;;;6.63;3.80;;;;;;;;;;5103747;28;20475;-80
2021/10/13 00:19:30;;;;;;;3.63;3.13;;;;;;;;;;5104638;28;20443;-81
2021/10/13 00:21:58;;;;;;;6.87;4.20;;;;;;;;;;5104196;28;20447;-81
2021/10/13 00:24:28;;;;;;;4.07;3.30;;;;;;;;;;5104590;28;20718;-81
2021/10/13 00:26:55;;;;;;;5.83;3.50;;;;;;;;;;5104166;28;20497;-80
2021/10/13 00:29:22;;;;;;;4.07;3.27;;;;;;;;;;5105443;28;20448;-80
2021/10/13 00:31:49;;;;;;;3.60;2.33;;;;;;;;;;5104551;28;20483;-81
2021/10/13 00:34:16;;;;;;;4.30;3.20;;;;;;;;;;5104855;28;20447;-81
2021/10/13 00:36:44;;;;;;;4.87;3.63;;;;;;;;;;5105023;28;20464;-80
2021/10/13 00:39:11;;;;;;;8.13;3.60;;;;;;;;;;5104381;28;20472;-80
2021/10/13 00:41:39;;;;;;;6.43;3.97;;;;;;;;;;5105169;28;20462;-81
2021/10/13 00:44:06;;;;;;;4.87;3.47;;;;;;;;;;5104387;28;20898;-81
2021/10/13 00:46:33;;;;;;;7.53;3.77;;;;;;;;;;5103409;27;20493;-81
2021/10/13 00:49:01;;;;;;;5.03;3.30;;;;;;;;;;5103691;28;20494;-81
2021/10/13 00:51:29;;;;;;;5.50;3.27;;;;;;;;;;5102774;28;20499;-81
2021/10/13 00:53:56;;;;;;;7.70;3.60;;;;;;;;;;5103668;28;20511;-81
2021/10/13 00:56:24;;;;;;;6.53;4.37;;;;;;;;;;5106089;28;20550;-81
2021/10/13 00:58:51;;;;;;;9.00;3.07;;;;;;;;;;5102765;28;20531;-81
2021/10/13 01:01:22;;;;;;;5.80;3.47;;;;;;;;;;5104469;28;20490;-81
2021/10/13 01:03:53;;;;;;;6.30;4.10;;;;;;;;;;5103630;28;20511;-81
2021/10/13 01:06:24;;;;;;;5.13;3.43;;;;;;;;;;5106197;28;20606;-81
2021/10/13 01:08:53;;;;;;;5.70;4.30;;;;;;;;;;5102472;28;20542;-80
2021/10/13 01:11:30;;;;;;;6.10;4.47;;;;;;;;;;5105006;28;20514;-79
2021/10/13 01:14:06;;;;;;;8.83;5.17;;;;;;;;;;5102006;28;20455;-81
2021/10/13 01:16:41;;;;;;;4.60;3.07;;;;;;;;;;5101884;28;20462;-80
2021/10/13 01:19:14;;;;;;;5.30;3.43;;;;;;;;;;5104339;28;20451;-79
2021/10/13 01:21:47;;;;;;;10.40;3.03;;;;;;;;;;5101698;28;20514;-80
2021/10/13 01:24:22;;;;;;;5.77;3.13;;;;;;;;;;5103836;28;20458;-80
2021/10/13 01:26:56;;;;;;;5.87;3.80;;;;;;;;;;5106274;28;20766;-81
2021/10/13 01:29:25;;;;;;;6.13;3.80;;;;;;;;;;5104398;28;20459;-80
2021/10/13 01:31:53;;;;;;;6.07;4.10;;;;;;;;;;5106323;28;20460;-80
2021/10/13 01:34:23;;;;;;;4.20;2.60;;;;;;;;;;5105205;28;20467;-81
2021/10/13 01:37:01;;;;;;;5.60;3.30;;;;;;;;;;5105178;28;20484;-80
2021/10/13 01:39:29;;;;;;;3.73;2.67;;;;;;;;;;5104759;28;20473;-80
2021/10/13 01:41:57;;;;;;;5.47;3.37;;;;;;;;;;5104512;28;20870;-80
2021/10/13 01:44:26;;;;;;;4.87;2.80;;;;;;;;;;5103748;28;20544;-80
2021/10/13 01:46:53;;;;;;;6.87;3.87;;;;;;;;;;5104917;28;20487;-80
2021/10/13 01:49:21;;;;;;;6.60;3.50;;;;;;;;;;5103870;28;20467;-81
2021/10/13 01:51:48;;;;;;;5.37;3.60;;;;;;;;;;5103141;28;20488;-81
2021/10/13 01:54:15;;;;;;;5.30;3.43;;;;;;;;;;5104252;28;20723;-81
2021/10/13 01:56:43;;;;;;;4.50;3.37;;;;;;;;;;5103313;28;20513;-80
2021/10/13 01:59:12;;;;;;;5.30;3.00;;;;;;;;;;5106985;28;20530;-81
2021/10/13 02:01:40;;;;;;;5.37;3.47;;;;;;;;;;5107228;28;20612;-81
2021/10/13 02:04:09;;;;;;;5.67;3.53;;;;;;;;;;5106502;28;20444;-81
2021/10/13 02:06:37;;;;;;;8.70;3.53;;;;;;;;;;5107177;28;20491;-80
2021/10/13 02:09:04;;;;;;;3.67;3.10;;;;;;;;;;5106411;28;21119;-81
2021/10/13 02:11:32;;;;;;;3.20;2.37;;;;;;;;;;5106876;28;20459;-81
2021/10/13 02:14:02;;;;;;;5.10;3.43;;;;;;;;;;5106331;28;20536;-81
2021/10/13 02:16:32;;;;;;;4.60;2.73;;;;;;;;;;5106648;28;20879;-81
2021/10/13 02:19:00;;;;;;;6.03;4.00;;;;;;;;;;5106262;28;20531;-81
2021/10/13 02:21:28;;;;;;;4.17;2.97;;;;;;;;;;5107283;28;20455;-80
2021/10/13 02:23:58;;;;;;;3.40;2.53;;;;;;;;;;5106713;28;20503;-80
2021/10/13 02:26:29;;;;;;;5.70;3.43;;;;;;;;;;5108066;28;20483;-80
2021/10/13 02:28:58;;;;;;;7.17;3.17;;;;;;;;;;5107339;28;20861;-80
2021/10/13 02:31:26;;;;;;;5.83;3.23;;;;;;;;;;5105358;28;20534;-80
2021/10/13 02:33:52;;;;;;;4.50;2.60;;;;;;;;;;5106288;28;20497;-80
2021/10/13 02:36:22;;;;;;;5.10;3.40;;;;;;;;;;5105583;28;20489;-80
2021/10/13 02:38:49;;;;;;;7.33;3.07;;;;;;;;;;5106629;28;20554;-80
2021/10/13 02:41:18;;;;;;;4.37;2.80;;;;;;;;;;5106511;28;20539;-81
2021/10/13 02:43:45;;;;;;;5.00;3.17;;;;;;;;;;5104966;28;20543;-80
2021/10/13 02:46:15;;;;;;;3.70;2.57;;;;;;;;;;5104323;28;20578;-80
2021/10/13 02:48:46;;;;;;;4.77;3.40;;;;;;;;;;5102541;28;20478;-80
2021/10/13 02:51:15;;;;;;;5.50;3.50;;;;;;;;;;5103540;28;20490;-79
2021/10/13 02:53:47;;;;;;;5.00;3.43;;;;;;;;;;5104746;28;20868;-80
2021/10/13 02:56:15;;;;;;;4.33;3.37;;;;;;;;;;5104826;28;20467;-80
2021/10/13 02:58:43;;;;;;;7.60;3.77;;;;;;;;;;5105734;28;20515;-80
2021/10/13 03:01:12;;;;;;;4.80;2.70;;;;;;;;;;5104889;28;20649;-80
2021/10/13 03:03:40;;;;;;;6.03;3.70;;;;;;;;;;5102764;28;20447;-80
2021/10/13 03:06:07;;;;;;;9.03;3.23;;;;;;;;;;5105738;28;20551;-80
2021/10/13 03:08:37;;;;;;;6.17;3.33;;;;;;;;;;5105726;28;20797;-80
2021/10/13 03:11:05;;;;;;;5.90;3.47;;;;;;;;;;5105442;28;20539;-80
2021/10/13 03:13:33;;;;;;;6.87;4.47;;;;;;;;;;5105848;28;20476;-81
2021/10/13 03:16:04;;;;;;;4.33;3.17;;;;;;;;;;5106965;28;20495;-80
2021/10/13 03:18:32;;;;;;;4.80;3.10;;;;;;;;;;5104860;28;20451;-81
2021/10/13 03:20:59;;;;;;;6.93;3.73;;;;;;;;;;5105560;28;20703;-81
2021/10/13 03:23:27;;;;;;;5.50;4.33;;;;;;;;;;5105221;28;20448;-80
2021/10/13 03:25:54;;;;;;;5.27;4.00;;;;;;;;;;5105165;28;20479;-81
2021/10/13 03:28:22;;;;;;;7.73;3.43;;;;;;;;;;5106125;28;20443;-79
2021/10/13 03:30:49;;;;;;;6.60;3.43;;;;;;;;;;5106628;28;20471;-80
2021/10/13 03:33:18;;;;;;;6.90;3.83;;;;;;;;;;5106819;28;20452;-81
2021/10/13 03:35:45;;;;;;;5.90;3.97;;;;;;;;;;5105336;28;20490;-81
2021/10/13 03:38:12;;;;;;;4.77;3.23;;;;;;;;;;5104371;28;20463;-81
2021/10/13 03:40:39;;;;;;;4.90;3.90;;;;;;;;;;5105303;28;20875;-81
2021/10/13 03:43:06;;;;;;;5.23;3.70;;;;;;;;;;5106007;28;20499;-81
2021/10/13 03:45:33;;;;;;;3.80;2.50;;;;;;;;;;5105927;28;20488;-81
2021/10/13 03:48:01;;;;;;;6.70;3.87;;;;;;;;;;5106633;28;20467;-81
2021/10/13 03:50:28;;;;;;;6.47;3.70;;;;;;;;;;5105589;28;20456;-81
2021/10/13 03:52:55;;;;;;;4.77;3.40;;;;;;;;;;5104799;28;20782;-81
2021/10/13 03:55:22;;;;;;;6.27;3.27;;;;;;;;;;5105098;28;20459;-80
2021/10/13 03:57:50;;;;;;;4.93;3.43;;;;;;;;;;5104810;28;20546;-81
2021/10/13 04:00:18;;;;;;;6.67;3.80;;;;;;;;;;5105129;28;20482;-80
2021/10/13 04:02:45;;;;;;;5.80;3.40;;;;;;;;;;5105342;28;20494;-80
2021/10/13 04:05:13;;;;;;;5.60;3.00;;;;;;;;;;5105137;28;20540;-81
2021/10/13 04:07:40;;;;;;;6.83;3.70;;;;;;;;;;5106438;28;20511;-81
2021/10/13 04:10:08;;;;;;;6.43;3.20;;;;;;;;;;5103325;28;20657;-81
2021/10/13 04:12:36;;;;;;;6.97;3.17;;;;;;;;;;5106081;28;20471;-81
2021/10/13 04:15:03;;;;;;;9.57;3.03;;;;;;;;;;5104704;28;20467;-81
2021/10/13 04:17:32;;;;;;;5.30;3.83;;;;;;;;;;5104161;28;20485;-81
2021/10/13 04:20:00;;;;;;;6.17;3.80;;;;;;;;;;5102633;28;20455;-80
2021/10/13 04:22:27;;;;;;;4.77;3.40;;;;;;;;;;5099980;28;20463;-80
2021/10/13 04:24:54;;;;;;;6.50;4.50;;;;;;;;;;5103912;28;20476;-79
2021/10/13 04:27:21;;;;;;;7.60;3.60;;;;;;;;;;5105024;28;20555;-81
2021/10/13 04:29:48;;;;;;;5.33;3.67;;;;;;;;;;5103597;28;20479;-81
2021/10/13 04:32:15;;;;;;;5.43;4.10;;;;;;;;;;5104464;28;20471;-81
2021/10/13 04:34:42;;;;;;;11.60;3.57;;;;;;;;;;5103568;28;20530;-80
2021/10/13 04:37:10;;;;;;;5.60;4.00;;;;;;;;;;5105758;28;20455;-81
2021/10/13 04:39:37;;;;;;;8.37;4.60;;;;;;;;;;5103255;28;20484;-81
2021/10/13 04:42:04;;;;;;;6.00;3.17;;;;;;;;;;5104013;28;20848;-81
2021/10/13 04:44:31;;;;;;;5.03;3.10;;;;;;;;;;5104303;28;20448;-80
2021/10/13 04:46:58;;;;;;;4.30;3.90;;;;;;;;;;5105822;28;20498;-81
2021/10/13 04:49:25;;;;;;;7.03;4.20;;;;;;;;;;5102722;28;20530;-80
2021/10/13 04:51:52;;;;;;;6.80;4.10;;;;;;;;;;5103618;28;20467;-81
2021/10/13 04:54:20;;;;;;;5.37;3.17;;;;;;;;;;5101496;28;20534;-80
2021/10/13 04:56:47;;;;;;;7.00;3.60;;;;;;;;;;5102395;28;20804;-79
2021/10/13 04:59:14;;;;;;;4.27;3.20;;;;;;;;;;5102072;28;20525;-80
2021/10/13 05:01:41;;;;;;;4.67;3.93;;;;;;;;;;5104578;28;20455;-81
2021/10/13 05:04:08;;;;;;;5.07;3.40;;;;;;;;;;5104874;28;20436;-80
2021/10/13 05:06:35;;;;;;;7.57;3.43;;;;;;;;;;5103850;28;20629;-81
2021/10/13 05:09:02;;;;;;;4.50;3.30;;;;;;;;;;5101792;28;20477;-81
2021/10/13 05:11:30;;;;;;;6.60;3.43;;;;;;;;;;5103012;28;20814;-80
2021/10/13 05:13:57;;;;;;;6.07;3.87;;;;;;;;;;5100727;28;20451;-81
2021/10/13 05:16:27;;;;;;;6.57;3.37;;;;;;;;;;5100742;28;20546;-81
2021/10/13 05:18:54;;;;;;;4.93;3.50;;;;;;;;;;5101999;28;20496;-81
2021/10/13 05:21:21;;;;;;;5.70;3.80;;;;;;;;;;5101438;28;20857;-81
2021/10/13 05:23:48;;;;;;;4.63;3.43;;;;;;;;;;5102105;28;20451;-81
2021/10/13 05:26:15;;;;;;;8.40;3.63;;;;;;;;;;5101343;28;20534;-81
2021/10/13 05:28:43;;;;;;;4.67;3.50;;;;;;;;;;5102194;28;20439;-80
2021/10/13 05:31:10;;;;;;;5.10;3.17;;;;;;;;;;5099856;28;20448;-79
2021/10/13 05:33:37;;;;;;;6.80;2.97;;;;;;;;;;5103667;28;20807;-80
2021/10/13 05:36:04;;;;;;;6.63;3.27;;;;;;;;;;5103499;28;20455;-80
2021/10/13 05:38:31;;;;;;;6.20;4.20;;;;;;;;;;5104938;28;20653;-80
2021/10/13 05:40:58;;;;;;;4.47;3.63;;;;;;;;;;5104471;28;20910;-80
2021/10/13 05:43:25;;;;;;;5.13;3.23;;;;;;;;;;5103749;28;20477;-81
2021/10/13 05:45:53;;;;;;;5.17;4.00;;;;;;;;;;5102070;28;20487;-81
2021/10/13 05:48:19;;;;;;;6.23;3.80;;;;;;;;;;5104854;28;20538;-81
2021/10/13 05:50:47;;;;;;;5.30;4.10;;;;;;;;;;5105134;28;20793;-81
2021/10/13 05:53:14;;;;;;;4.40;2.70;;;;;;;;;;5103096;28;20483;-81
2021/10/13 05:55:41;;;;;;;5.57;3.53;;;;;;;;;;5104853;28;20804;-81
2021/10/13 05:58:09;;;;;;;5.03;3.30;;;;;;;;;;5103533;28;20499;-80
2021/10/13 06:00:37;;;;;;;5.67;3.90;;;;;;;;;;5105190;28;20458;-80
2021/10/13 06:03:05;;;;;;;6.70;4.10;;;;;;;;;;5105381;28;20483;-79
2021/10/13 06:05:32;;;;;;;6.10;4.33;;;;;;;;;;5104835;28;20961;-81
2021/10/13 06:07:59;;;;;;;4.90;3.53;;;;;;;;;;5104267;28;20440;-80
2021/10/13 06:10:26;;;;;;;5.27;4.23;;;;;;;;;;5108685;28;20532;-82
2021/10/13 06:12:53;;;;;;;5.87;3.73;;;;;;;;;;5105994;28;20520;-83
2021/10/13 06:15:20;;;;;;;4.93;3.47;;;;;;;;;;5105514;28;20461;-83
2021/10/13 06:17:47;;;;;;;15.83;9.20;;;;;;;;;;5104778;28;20451;-81
2021/10/13 06:20:15;;;;;;;5.27;3.77;;;;;;;;;;5107197;28;20460;-82
2021/10/13 06:22:42;;;;;;;8.43;4.50;;;;;;;;;;5105988;28;20448;-82
2021/10/13 06:25:11;;;;;;;5.20;4.67;;;;;;;;;;5105736;28;20450;-81
2021/10/13 06:27:38;;;;;;;5.73;3.93;;;;;;;;;;5108866;28;20483;-81
2021/10/13 06:30:05;;;;;;;6.60;3.90;;;;;;;;;;5105036;28;20485;-80
2021/10/13 06:32:32;;;;;;;6.83;4.63;;;;;;;;;;5102755;28;20450;-79
2021/10/13 06:34:59;;;;;;;6.90;3.67;;;;;;;;;;5101016;28;20448;-79
2021/10/13 06:37:27;;;;;;;6.47;4.10;;;;;;;;;;5102342;28;20564;-79
2021/10/13 06:39:54;;;;;;;10.27;7.47;;;;;;;;;;5101951;28;20470;-79
2021/10/13 06:42:21;;;;;;;5.63;4.27;;;;;;;;;;5102701;28;20455;-80
2021/10/13 06:44:48;;;;;;;3.87;3.40;;;;;;;;;;5103138;28;20504;-79
2021/10/13 06:47:15;;;;;;;7.07;3.67;;;;;;;;;;5103321;28;20617;-79
2021/10/13 06:49:42;;;;;;;4.70;3.80;;;;;;;;;;5103125;28;20458;-79
2021/10/13 06:52:09;;;;;;;5.70;4.30;;;;;;;;;;5102335;28;20585;-79
2021/10/13 06:54:37;;;;;;;4.60;3.40;;;;;;;;;;5106225;28;20902;-79
2021/10/13 06:57:04;;;;;;;6.23;3.40;;;;;;;;;;5099253;27;20467;-78
2021/10/13 06:59:31;;;;;;;4.97;3.93;;;;;;;;;;5125212;27;20732;-80
2021/10/13 07:01:58;;;;;;;4.50;3.10;;;;;;;;;;5124437;27;20521;-80
2021/10/13 07:04:25;;;;;;;4.60;3.30;;;;;;;;;;5124574;27;20445;-79
2021/10/13 07:06:52;;;;;;;3.77;2.87;;;;;;;;;;5120318;27;20486;-81
2021/10/13 07:09:22;;;;;;;3.40;2.23;;;;;;;;;;5120181;27;20424;-81
2021/10/13 07:11:50;;;;;;;5.07;3.40;;;;;;;;;;5127513;27;20455;-80
2021/10/13 07:14:17;;;;;;;5.40;3.83;;;;;;;;;;5125446;27;20557;-79
2021/10/13 07:16:47;;;;;;;6.83;3.60;;;;;;;;;;5117349;27;20488;-81
2021/10/13 07:19:15;;;;;;;4.37;3.23;;;;;;;;;;5108697;28;20462;-82
2021/10/13 07:21:42;;;;;;;12.23;4.17;;;;;;;;;;5105421;28;20451;-79
2021/10/13 07:24:09;;;;;;;5.30;3.47;;;;;;;;;;5105618;28;20448;-81
2021/10/13 07:26:36;;;;;;;7.93;3.93;;;;;;;;;;5108054;28;20927;-82
2021/10/13 07:29:04;;;;;;;5.73;4.07;;;;;;;;;;5104483;28;20506;-80
2021/10/13 07:31:31;;;;;;;5.87;4.23;;;;;;;;;;5103789;28;20490;-80
2021/10/13 07:33:59;;;;;;;3.87;2.80;;;;;;;;;;5107679;27;20468;-81
2021/10/13 07:36:26;;;;;;;5.43;3.13;;;;;;;;;;5102506;28;20455;-80
2021/10/13 07:38:53;;;;;;;4.83;3.60;;;;;;;;;;5103707;28;20452;-80
2021/10/13 07:41:21;;;;;;;4.20;3.20;;;;;;;;;;5102859;28;20883;-79
2021/10/13 07:43:50;;;;;;;4.67;3.10;;;;;;;;;;5103334;28;20455;-81
2021/10/13 07:46:19;;;;;;;6.70;3.43;;;;;;;;;;5105110;28;20490;-81
2021/10/13 07:48:46;;;;;;;4.87;3.70;;;;;;;;;;5106467;28;20475;-81
2021/10/13 07:51:13;;;;;;;5.23;3.70;;;;;;;;;;5117838;27;20449;-81
2021/10/13 07:53:40;;;;;;;8.50;3.67;;;;;;;;;;5106841;28;20452;-81
2021/10/13 07:56:07;;;;;;;3.30;2.37;;;;;;;;;;5105275;27;20452;-79
2021/10/13 07:58:34;;;;;;;4.30;2.93;;;;;;;;;;5107031;28;20547;-79
2021/10/13 08:01:02;;;;;;;4.83;3.27;;;;;;;;;;5103517;28;20458;-80
2021/10/13 08:03:29;;;;;;;5.00;2.50;;;;;;;;;;5114356;28;20443;-78
2021/10/13 08:05:56;;;;;;;6.50;4.13;;;;;;;;;;5108060;28;20529;-79
2021/10/13 08:08:24;;;;;;;3.80;3.23;;;;;;;;;;5122773;27;20451;-77
2021/10/13 08:10:51;;;;;;;6.67;2.97;;;;;;;;;;5098784;28;20448;-79
2021/10/13 08:13:18;;;;;;;3.20;2.20;;;;;;;;;;5099795;28;20469;-78
2021/10/13 08:15:45;;;;;;;4.60;2.43;;;;;;;;;;5104460;28;20473;-80
2021/10/13 08:18:12;;;;;;;4.10;2.70;;;;;;;;;;5109763;28;20444;-79
2021/10/13 08:20:40;;;;;;;3.13;2.17;;;;;;;;;;5113413;28;20455;-79
2021/10/13 08:23:07;;;;;;;5.43;4.07;;;;;;;;;;5099626;28;20431;-81
2021/10/13 08:25:34;;;;;;;8.93;2.53;;;;;;;;;;5104363;28;20515;-81
2021/10/13 08:28:01;;;;;;;4.53;2.17;;;;;;;;;;5105986;28;20443;-79
2021/10/13 08:30:28;;;;;;;5.20;2.43;;;;;;;;;;5115083;28;20475;-80
2021/10/13 08:32:55;;;;;;;3.57;2.87;;;;;;;;;;5105643;28;20448;-80
2021/10/13 08:35:22;;;;;;;4.03;3.27;;;;;;;;;;5100668;28;20451;-80
2021/10/13 08:37:50;;;;;;;4.67;3.10;;;;;;;;;;5105848;28;20475;-78
2021/10/13 08:40:17;;;;;;;3.30;2.33;;;;;;;;;;5105700;28;20548;-81
2021/10/13 08:42:54;;;;;;;3.33;2.63;;;;;;;;;;5106132;28;20491;-79
2021/10/13 08:45:22;;;;;;;2.50;1.33;;;;;;;;;;5105739;28;20763;-80
2021/10/13 08:47:49;;;;;;;3.67;2.10;;;;;;;;;;5106430;28;20571;-81
2021/10/13 08:50:18;;;;;;;3.00;2.70;;;;;;;;;;5099289;27;20444;-81
2021/10/13 08:52:45;;;;;;;2.47;1.70;;;;;;;;;;5103085;28;20452;-80
2021/10/13 08:55:13;;;;;;;3.80;2.60;;;;;;;;;;5106954;28;20484;-79
2021/10/13 08:57:40;;;;;;;2.70;1.57;;;;;;;;;;5095051;28;20463;-78
2021/10/13 09:00:08;;;;;;;2.80;1.73;;;;;;;;;;5111712;28;20438;-80
2021/10/13 09:02:39;;;;;;;11.00;6.90;;;;;;;;;;5109228;27;20569;-79
2021/10/13 09:05:08;;;;;;;2.03;1.43;;;;;;;;;;5102026;28;20440;-82
2021/10/13 09:07:36;;;;;;;2.57;1.60;;;;;;;;;;5094533;28;20778;-80
2021/10/13 09:10:03;;;;;;;2.50;2.20;;;;;;;;;;5101593;28;20448;-81
2021/10/13 09:12:32;;;;;;;2.00;1.30;;;;;;;;;;5114769;28;20466;-80
2021/10/13 09:15:06;;;;;;;2.23;1.83;;;;;;;;;;5105592;28;20448;-82
2021/10/13 09:17:53;;;;;;;4.03;2.80;;;;;;;;;;5109205;28;20481;-80
2021/10/13 09:20:21;;;;;;;4.37;1.40;;;;;;;;;;5112315;27;20817;-78
2021/10/13 09:23:01;;;;;;;4.97;2.50;;;;;;;;;;5104509;27;20451;-81
2021/10/13 09:25:30;;;;;;;4.10;1.40;;;;;;;;;;5122496;28;20497;-82
2021/10/13 09:28:00;;;;;;;3.83;1.90;;;;;;;;;;5115143;27;20490;-80
2021/10/13 09:30:29;;;;;;;3.30;1.77;;;;;;;;;;5120674;27;20450;-80
2021/10/13 09:33:08;;;;;;;2.90;2.07;;;;;;;;;;5098284;28;21004;-78
2021/10/13 09:35:35;;;;;;;2.30;1.80;;;;;;;;;;5100859;28;20554;-79
2021/10/13 09:38:02;;;;;;;9.10;2.10;;;;;;;;;;5080197;28;20495;-80
2021/10/13 09:40:31;;;;;;;3.87;1.97;;;;;;;;;;5080466;28;20475;-80
2021/10/13 09:42:59;;;;;;;2.13;1.47;;;;;;;;;;5079264;28;20453;-82
2021/10/13 09:45:27;;;;;;;2.43;1.47;;;;;;;;;;5081145;28;20532;-79
2021/10/13 09:47:58;;;;;;;2.53;1.23;;;;;;;;;;5097203;28;20478;-78
2021/10/13 09:50:37;;;;;;;2.07;0.70;;;;;;;;;;5100910;28;20950;-81
2021/10/13 09:53:15;;;;;;;1.60;1.00;;;;;;;;;;5082869;28;20530;-81
2021/10/13 09:55:42;;;;;;;4.53;2.00;;;;;;;;;;5111293;27;20442;-80
2021/10/13 09:58:21;;;;;;;2.60;1.50;;;;;;;;;;5121913;27;20454;-80
2021/10/13 10:00:48;;;;;;;2.50;1.57;;;;;;;;;;5107061;27;20562;-80
2021/10/13 10:03:16;;;;;;;4.73;2.10;;;;;;;;;;5090992;28;20455;-80
2021/10/13 10:05:43;;;;;;;2.43;2.00;;;;;;;;;;5102144;28;20536;-79
2021/10/13 10:08:11;;;;;;;2.43;0.90;;;;;;;;;;5117804;27;20447;-79
2021/10/13 10:10:38;;;;;;;4.30;1.40;;;;;;;;;;5091395;28;20464;-79
2021/10/13 10:13:06;;;;;;;4.30;1.90;;;;;;;;;;5098468;28;20455;-80
2021/10/13 10:15:35;;;;;;;3.40;1.27;;;;;;;;;;5103443;28;20459;-80
2021/10/13 10:18:24;;;;;;;2.80;1.70;;;;;;;;;;5121931;27;20558;-80
2021/10/13 10:20:57;;;;;;;2.30;1.53;;;;;;;;;;5105268;28;20445;-80
2021/10/13 10:23:32;;;;;;;2.00;1.43;;;;;;;;;;5087467;28;20461;-79
2021/10/13 10:26:03;;;;;;;3.57;1.40;;;;;;;;;;5112930;27;20453;-80
2021/10/13 10:28:54;;;;;;;2.17;1.33;;;;;;;;;;5104590;28;20522;-79
2021/10/13 10:31:38;;;;;;;3.33;1.50;;;;;;;;;;5071443;28;20472;-79
2021/10/13 10:34:12;;;;;;;4.17;1.73;;;;;;;;;;5084487;28;20505;-81
2021/10/13 10:36:57;;;;;;;4.90;1.20;;;;;;;;;;5083852;28;20452;-80
2021/10/13 10:39:45;;;;;;;2.77;1.93;;;;;;;;;;5105642;28;20449;-81
2021/10/13 10:42:12;;;;;;;2.80;1.40;;;;;;;;;;5084466;28;20463;-80
2021/10/13 10:44:47;;;;;;;3.27;1.20;;;;;;;;;;5084788;28;20498;-78
2021/10/13 10:47:21;;;;;;;4.33;1.00;;;;;;;;;;5086441;28;20499;-81
2021/10/13 10:50:15;;;;;;;2.70;1.50;;;;;;;;;;5090257;28;20749;-81
2021/10/13 10:52:58;;;;;;;10.90;2.07;;;;;;;;;;5087450;28;20460;-80
2021/10/13 10:55:35;;;;;;;5.17;1.43;;;;;;;;;;5102149;28;20447;-80
2021/10/13 10:58:13;;;;;;;2.23;1.10;;;;;;;;;;5103885;27;20885;-82
2021/10/13 11:00:42;;;;;;;2.33;1.07;;;;;;;;;;5105647;28;20889;-81
2021/10/13 11:03:24;;;;;;;4.00;1.57;;;;;;;;;;5108995;28;20460;-80
2021/10/13 11:05:56;;;;;;;4.97;1.47;;;;;;;;;;5102088;28;20452;-80
2021/10/13 11:08:24;;;;;;;5.00;2.30;;;;;;;;;;5106124;28;20527;-80
2021/10/13 11:10:53;;;;;;;3.17;1.50;;;;;;;;;;5114037;27;20470;-78
2021/10/13 11:13:26;;;;;;;7.03;2.00;;;;;;;;;;5107098;28;20449;-81
2021/10/13 11:15:53;;;;;;;3.93;1.53;;;;;;;;;;5090401;28;20459;-80
2021/10/13 11:18:20;;;;;;;3.40;2.23;;;;;;;;;;5090141;28;20472;-81
2021/10/13 11:20:51;;;;;;;2.70;1.43;;;;;;;;;;5112602;28;20455;-79
2021/10/13 11:23:18;;;;;;;3.87;1.87;;;;;;;;;;5109011;28;20448;-80
2021/10/13 11:25:49;;;;;;;2.27;1.40;;;;;;;;;;5103889;28;20541;-80
2021/10/13 11:28:19;;;;;;;3.83;1.67;;;;;;;;;;5110850;27;20436;-81
2021/10/13 11:30:50;;;;;;;3.40;1.23;;;;;;;;;;5095472;28;20459;-80
2021/10/13 11:33:18;;;;;;;4.63;1.43;;;;;;;;;;5107408;27;20547;-78
2021/10/13 11:35:45;;;;;;;6.70;1.77;;;;;;;;;;5101711;28;20479;-81
2021/10/13 11:38:21;;;;;;;7.83;3.37;;;;;;;;;;5104252;28;20512;-80
2021/10/13 11:40:49;;;;;;;6.50;2.90;;;;;;;;;;5101930;28;20472;-80
2021/10/13 11:43:18;;;;;;;2.60;1.87;;;;;;;;;;5104550;28;20444;-80
2021/10/13 11:45:47;;;;;;;7.40;2.70;;;;;;;;;;5103807;28;20447;-80
2021/10/13 11:48:22;;;;;;;3.60;1.70;;;;;;;;;;5103307;28;20543;-81
2021/10/13 11:50:50;;;;;;;6.73;1.80;;;;;;;;;;5102054;28;20451;-80
2021/10/13 11:53:17;;;;;;;4.60;1.90;;;;;;;;;;5098804;28;20489;-79
2021/10/13 11:55:50;;;;;;;4.73;2.53;;;;;;;;;;5118375;27;20867;-79
2021/10/13 11:58:23;;;;;;;8.90;3.40;;;;;;;;;;5121366;27;20442;-78
2021/10/13 12:00:51;;;;;;;4.30;2.43;;;;;;;;;;5111691;28;20456;-80
2021/10/13 12:03:19;;;;;;;5.33;2.50;;;;;;;;;;5099269;28;20477;-79
2021/10/13 12:05:47;;;;;;;4.07;1.37;;;;;;;;;;5105255;28;20482;-80
2021/10/13 12:08:15;;;;;;;3.20;1.97;;;;;;;;;;5099146;28;20558;-80
2021/10/13 12:10:49;;;;;;;2.90;2.00;;;;;;;;;;5105114;28;20451;-79
2021/10/13 12:13:17;;;;;;;3.70;1.67;;;;;;;;;;5090710;28;20488;-81
2021/10/13 12:15:45;;;;;;;2.37;1.20;;;;;;;;;;5096600;28;20471;-80
2021/10/13 12:18:18;;;;;;;4.50;2.00;;;;;;;;;;5108329;28;20481;-80
2021/10/13 12:20:47;;;;;;;3.03;1.23;;;;;;;;;;5095870;28;20451;-79
2021/10/13 12:23:15;;;;;;;3.87;1.50;;;;;;;;;;5102334;28;20763;-80
2021/10/13 12:31:38;;;;;;;6.87;2.00;;;;;;;;;;5091590;28;20475;-79
2021/10/13 12:34:08;;;;;;;5.23;2.07;;;;;;;;;;5084880;28;20457;-81
2021/10/13 12:36:36;;;;;;;4.27;1.87;;;;;;;;;;5085968;28;20461;-80
2021/10/13 12:39:10;;;;;;;4.60;1.50;;;;;;;;;;5120840;27;20481;-81
2021/10/13 12:41:41;;;;;;;4.00;1.23;;;;;;;;;;5108075;28;20460;-79
2021/10/13 12:44:13;;;;;;;5.70;2.00;;;;;;;;;;5110594;28;20452;-83
2021/10/13 12:46:41;;;;;;;5.57;2.70;;;;;;;;;;5104873;28;20476;-82
2021/10/13 12:49:15;;;;;;;8.57;1.83;;;;;;;;;;5102252;28;20461;-79
2021/10/13 12:52:05;;;;;;;5.13;1.60;;;;;;;;;;5116226;27;20936;-80
2021/10/13 12:54:34;;;;;;;4.40;1.60;;;;;;;;;;5102667;28;20720;-79
2021/10/13 12:57:02;;;;;;;5.53;1.80;;;;;;;;;;5103326;27;20458;-80
2021/10/13 12:59:29;;;;;;;4.00;2.40;;;;;;;;;;5107106;28;20910;-79
2021/10/13 13:01:56;;;;;;;7.00;2.00;;;;;;;;;;5104870;28;20462;-78
2021/10/13 13:04:29;;;;;;;2.73;1.67;;;;;;;;;;5098464;28;20602;-79
2021/10/13 13:06:56;;;;;;;2.93;1.13;;;;;;;;;;5118019;28;20474;-79
2021/10/13 13:09:23;;;;;;;4.03;1.80;;;;;;;;;;5110288;28;20459;-79
2021/10/13 13:11:53;;;;;;;2.57;1.70;;;;;;;;;;5092523;28;20472;-79
2021/10/13 13:14:20;;;;;;;5.93;1.70;;;;;;;;;;5106249;28;20473;-78
2021/10/13 13:16:53;;;;;;;3.93;1.67;;;;;;;;;;5104610;28;20492;-79
2021/10/13 13:19:20;;;;;;;3.00;1.30;;;;;;;;;;5100822;28;20443;-80
2021/10/13 13:21:56;;;;;;;3.60;1.63;;;;;;;;;;5100955;28;20870;-79
2021/10/13 13:24:23;;;;;;;8.40;2.17;;;;;;;;;;5101016;28;20454;-80
2021/10/13 13:26:52;;;;;;;1.80;1.00;;;;;;;;;;5102030;28;20912;-80
2021/10/13 13:29:19;;;;;;;2.93;1.80;;;;;;;;;;5100026;28;20573;-80
2021/10/13 13:31:46;;;;;;;3.50;1.40;;;;;;;;;;5101610;28;20479;-80
2021/10/13 13:34:13;;;;;;;3.10;1.30;;;;;;;;;;5118154;27;20461;-80
2021/10/13 13:36:41;;;;;;;3.73;2.17;;;;;;;;;;5100829;28;20448;-81
2021/10/13 13:39:09;;;;;;;4.87;1.40;;;;;;;;;;5105241;28;20529;-81
2021/10/13 13:41:36;;;;;;;5.27;1.80;;;;;;;;;;5103990;28;20519;-80
2021/10/13 13:44:06;;;;;;;2.90;1.50;;;;;;;;;;5104168;28;20470;-80
2021/10/13 13:46:33;;;;;;;2.87;1.90;;;;;;;;;;5104127;28;20476;-79
2021/10/13 13:49:00;;;;;;;7.53;2.00;;;;;;;;;;5101416;28;20740;-80
2021/10/13 13:51:28;;;;;;;2.97;1.43;;;;;;;;;;5101636;28;20479;-80
2021/10/13 13:53:55;;;;;;;6.47;2.03;;;;;;;;;;5101364;28;20950;-80
2021/10/13 13:56:23;;;;;;;3.60;1.70;;;;;;;;;;5099697;28;20456;-80
2021/10/13 13:58:50;;;;;;;4.17;2.97;;;;;;;;;;5095066;28;20902;-80
2021/10/13 14:01:17;;;;;;;5.30;1.80;;;;;;;;;;5106325;28;20482;-79
2021/10/13 14:03:44;;;;;;;2.47;1.63;;;;;;;;;;5104098;28;20464;-79
2021/10/13 14:12:08;;;;;;;4.60;2.20;;;;;;;;;;5077427;28;20430;-80
2021/10/13 14:14:35;;;;;;;2.50;1.83;;;;;;;;;;5103865;28;20483;-79
2021/10/13 14:17:05;;;;;;;4.80;2.13;;;;;;;;;;5102079;28;20513;-77
2021/10/13 14:22:34;;;;;;;5.80;1.97;;;;;;;;;;5110151;28;20439;-78
2021/10/13 14:25:10;;;;;;;3.87;1.20;;;;;;;;;;5109287;28;20516;-78
2021/10/13 14:27:38;;;;;;;14.97;4.43;;;;;;;;;;5109953;28;20479;-81
2021/10/13 14:30:07;;;;;;;5.37;1.80;;;;;;;;;;5114075;28;20471;-80
2021/10/13 14:32:34;;;;;;;2.77;2.00;;;;;;;;;;5110760;28;20478;-81
2021/10/13 14:35:01;;;;;;;4.03;0.80;;;;;;;;;;5108301;28;20539;-81
2021/10/13 14:37:45;;;;;;;3.60;2.00;;;;;;;;;;5103043;28;20477;-81
2021/10/13 14:40:15;;;;;;;3.80;2.33;;;;;;;;;;5099756;28;20584;-79
2021/10/13 14:42:43;;;;;;;5.40;2.10;;;;;;;;;;5106670;28;20447;-80
2021/10/13 14:45:12;;;;;;;2.87;1.33;;;;;;;;;;5101492;28;20455;-78
2021/10/13 14:47:39;;;;;;;7.73;2.23;;;;;;;;;;5099590;28;20590;-79
2021/10/13 14:50:06;;;;;;;3.83;1.80;;;;;;;;;;5093710;28;20472;-80
2021/10/13 14:52:33;;;;;;;3.60;1.50;;;;;;;;;;5101730;28;20494;-79
2021/10/13 14:55:01;;;;;;;3.20;2.23;;;;;;;;;;5106148;28;20463;-81
2021/10/13 14:57:28;;;;;;;4.60;1.90;;;;;;;;;;5101631;28;20454;-80
2021/10/13 15:00:03;;;;;;;4.80;1.87;;;;;;;;;;5105626;28;20592;-79
2021/10/13 15:02:34;;;;;;;6.50;1.87;;;;;;;;;;5103147;28;20475;-80
2021/10/13 15:05:02;;;;;;;1.80;1.10;;;;;;;;;;5101232;28;20499;-78
2021/10/13 15:07:29;;;;;;;3.97;2.07;;;;;;;;;;5096269;28;20626;-77
2021/10/13 15:09:55;;;;;;;3.07;1.63;;;;;;;;;;5100890;28;20470;-79